RU-0483 weather

Padinskoye Airstrip
Padinskoye, Russia

Public forecast

Using degrees Celsius for public forecast. Weather courtesy of forecast.io.

METAR (pilot weather report)

Closest report is Mineralnyye Vody Airport, 37.5 nm (69.4 km) S. Retrieved 2019/08/25 22:30 UTC (0 seconds ago):

URMM 252230Z 29002MPS 9999 BKN055CB 20/16 Q1019 R12/090070 TEMPO 1000 SHRA SCT003 BKN020CB RMK QFE736/0982

TAF (pilot weather forecast)

Closest forecast is Mineralnyye Vody Airport, 37.5 nm (69.4 km) S. Retrieved 2019/08/25 21:21 UTC (56 minutes ago):

TAF URMM 252000Z 2521/2621 08003G08MPS 9999 BKN030 TX27/2612Z TN18/2602Z TEMPO 2521/2618 VRB06G12MPS 3100 -TSRA BKN011 BKN030CB